createdAt,value
2023-07-03T00:01:26.849Z,1008.70
2023-07-03T00:03:15.040Z,1008.72
2023-07-03T00:04:18.653Z,1008.81
2023-07-03T00:06:04.691Z,1008.76
2023-07-03T00:07:08.187Z,1008.76
2023-07-03T00:08:53.865Z,1008.75
2023-07-03T00:09:56.921Z,1008.76
2023-07-03T00:11:41.965Z,1008.71
2023-07-03T00:12:45.023Z,1008.69
2023-07-03T00:14:30.310Z,1008.70
2023-07-03T00:15:33.668Z,1008.64
2023-07-03T00:17:19.650Z,1008.66
2023-07-03T00:18:23.009Z,1008.65
2023-07-03T00:20:08.171Z,1008.64
2023-07-03T00:21:11.526Z,1008.62
2023-07-03T00:22:56.884Z,1008.62
2023-07-03T00:24:00.124Z,1008.60
2023-07-03T00:25:45.002Z,1008.56
2023-07-03T00:26:48.765Z,1008.60
2023-07-03T00:28:34.119Z,1008.50
2023-07-03T00:29:37.579Z,1008.54
2023-07-03T00:31:22.697Z,1008.54
2023-07-03T00:32:26.267Z,1008.54
2023-07-03T00:34:11.658Z,1008.45
2023-07-03T00:35:14.777Z,1008.49
2023-07-03T00:37:00.060Z,1008.49
2023-07-03T00:38:03.225Z,1008.46
2023-07-03T00:39:48.702Z,1008.46
2023-07-03T00:40:51.910Z,1008.52
2023-07-03T00:42:37.327Z,1008.51
2023-07-03T00:43:40.562Z,1008.53
2023-07-03T00:45:26.052Z,1008.53
2023-07-03T00:46:29.273Z,1008.53
2023-07-03T00:48:14.930Z,1008.50
2023-07-03T00:49:18.305Z,1008.49
2023-07-03T00:51:03.560Z,1008.46
2023-07-03T00:52:06.735Z,1008.47
2023-07-03T00:53:51.946Z,1008.45
2023-07-03T00:54:55.130Z,1008.43
2023-07-03T00:56:40.606Z,1008.46
2023-07-03T00:57:43.934Z,1008.46
2023-07-03T00:59:29.498Z,1008.45
2023-07-03T01:00:23.377Z,1008.38
2023-07-03T01:01:26.933Z,1008.35
2023-07-03T01:03:12.650Z,1008.24
2023-07-03T01:04:15.987Z,1008.22
2023-07-03T01:06:03.224Z,1008.23
2023-07-03T01:07:06.469Z,1008.29
2023-07-03T01:08:51.734Z,1008.34
2023-07-03T01:09:54.872Z,1008.40
2023-07-03T01:11:40.513Z,1008.40
2023-07-03T01:12:43.491Z,1008.42
2023-07-03T01:14:28.995Z,1008.39
2023-07-03T01:15:32.359Z,1008.42
2023-07-03T01:17:18.443Z,1008.37
2023-07-03T01:18:22.104Z,1008.39
2023-07-03T01:20:07.293Z,1008.39
2023-07-03T01:21:10.342Z,1008.38
2023-07-03T01:22:55.773Z,1008.40
2023-07-03T01:23:59.121Z,1008.46
2023-07-03T01:25:44.727Z,1008.38
2023-07-03T01:26:48.602Z,1008.39
2023-07-03T01:28:34.039Z,1008.38
2023-07-03T01:29:37.342Z,1008.32
2023-07-03T01:31:22.598Z,1008.26
2023-07-03T01:32:26.079Z,1008.26
2023-07-03T01:34:11.637Z,1008.26
2023-07-03T01:35:14.731Z,1008.26
2023-07-03T01:36:59.827Z,1008.29
2023-07-03T01:38:03.150Z,1008.25
2023-07-03T01:39:48.274Z,1008.21
2023-07-03T01:40:51.541Z,1008.15
2023-07-03T01:42:37.096Z,1008.16
2023-07-03T01:43:40.338Z,1008.14
2023-07-03T01:45:25.939Z,1007.99
2023-07-03T01:46:29.654Z,1007.95
2023-07-03T01:48:15.527Z,1008.02
2023-07-03T01:49:18.785Z,1008.10
2023-07-03T01:51:04.097Z,1008.09
2023-07-03T01:52:07.584Z,1008.10
2023-07-03T01:53:52.868Z,1008.11
2023-07-03T01:54:56.196Z,1008.10
2023-07-03T01:56:42.022Z,1008.06
2023-07-03T01:57:45.342Z,1008.06
2023-07-03T01:59:31.060Z,1008.12
2023-07-03T02:00:23.921Z,1008.09
2023-07-03T02:01:27.025Z,1008.07
2023-07-03T02:03:13.281Z,1008.07
2023-07-03T02:04:17.458Z,1008.05
2023-07-03T02:06:02.875Z,1008.06
2023-07-03T02:07:06.373Z,1008.03
2023-07-03T02:08:51.635Z,1008.09
2023-07-03T02:09:54.918Z,1008.00
2023-07-03T02:11:40.155Z,1008.07
2023-07-03T02:12:43.334Z,1008.06
2023-07-03T02:14:28.615Z,1008.03
2023-07-03T02:15:32.028Z,1008.05
2023-07-03T02:17:17.936Z,1008.04
2023-07-03T02:18:21.365Z,1008.00
2023-07-03T02:20:06.916Z,1008.00
2023-07-03T02:21:10.197Z,1008.02
2023-07-03T02:22:55.130Z,1008.06
2023-07-03T02:23:58.383Z,1008.06
2023-07-03T02:25:43.792Z,1008.06
2023-07-03T02:26:47.863Z,1008.08
2023-07-03T02:28:33.058Z,1008.08
2023-07-03T02:29:36.342Z,1008.08
2023-07-03T02:31:22.065Z,1008.09
2023-07-03T02:32:25.704Z,1008.08
2023-07-03T02:34:11.175Z,1008.16
2023-07-03T02:35:14.107Z,1008.21
2023-07-03T02:36:59.400Z,1008.14
2023-07-03T02:38:02.681Z,1008.15
2023-07-03T02:39:47.669Z,1008.17
2023-07-03T02:40:52.524Z,1008.15
2023-07-03T02:42:38.024Z,1008.12
2023-07-03T02:43:41.364Z,1008.10
2023-07-03T02:45:26.536Z,1008.16
2023-07-03T02:46:29.631Z,1008.05
2023-07-03T02:48:15.764Z,1008.15
2023-07-03T02:49:19.260Z,1008.04
2023-07-03T02:51:05.028Z,1008.10
2023-07-03T02:52:08.280Z,1008.08
2023-07-03T02:53:53.409Z,1008.03
2023-07-03T02:54:56.633Z,1008.04
2023-07-03T02:56:42.085Z,1008.04
2023-07-03T02:57:45.138Z,1008.08
2023-07-03T02:59:30.016Z,1008.04
2023-07-03T03:00:23.922Z,1008.09
2023-07-03T03:01:27.700Z,1008.08
2023-07-03T03:03:13.871Z,1008.02
2023-07-03T03:04:17.900Z,1008.01
2023-07-03T03:06:03.888Z,1007.96
2023-07-03T03:07:07.372Z,1007.98
2023-07-03T03:08:52.948Z,1008.00
2023-07-03T03:09:56.363Z,1007.98
2023-07-03T03:11:41.854Z,1007.96
2023-07-03T03:12:45.176Z,1007.99
2023-07-03T03:14:30.795Z,1007.98
2023-07-03T03:15:34.033Z,1008.00
2023-07-03T03:17:20.028Z,1007.95
2023-07-03T03:18:23.620Z,1007.99
2023-07-03T03:20:11.561Z,1007.93
2023-07-03T03:21:15.107Z,1007.96
2023-07-03T03:23:00.560Z,1007.93
2023-07-03T03:24:03.690Z,1007.96
2023-07-03T03:25:49.560Z,1007.94
2023-07-03T03:26:53.450Z,1007.91
2023-07-03T03:28:38.559Z,1007.97
2023-07-03T03:29:41.482Z,1008.02
2023-07-03T03:31:27.238Z,1008.05
2023-07-03T03:32:30.706Z,1008.05
2023-07-03T03:34:16.194Z,1008.02
2023-07-03T03:35:19.379Z,1008.02
2023-07-03T03:37:04.923Z,1008.03
2023-07-03T03:38:08.259Z,1008.04
2023-07-03T03:39:53.497Z,1008.02
2023-07-03T03:40:56.794Z,1008.03
2023-07-03T03:42:42.142Z,1008.08
2023-07-03T03:43:45.476Z,1008.10
2023-07-03T03:45:30.540Z,1008.12
2023-07-03T03:46:34.010Z,1008.14
2023-07-03T03:48:20.070Z,1008.20
2023-07-03T03:49:24.017Z,1008.17
2023-07-03T03:51:09.174Z,1008.12
2023-07-03T03:52:12.299Z,1008.10
2023-07-03T03:53:57.235Z,1008.12
2023-07-03T03:55:00.857Z,1008.12
2023-07-03T03:56:46.117Z,1008.09
2023-07-03T03:57:49.375Z,1008.07
2023-07-03T03:59:34.769Z,1008.09
2023-07-03T04:01:26.817Z,1008.14
2023-07-03T04:03:12.759Z,1008.19
2023-07-03T04:04:16.327Z,1008.15
2023-07-03T04:05:52.725Z,1008.17
2023-07-03T04:06:56.478Z,1008.15
2023-07-03T04:08:42.198Z,1008.14
2023-07-03T04:09:45.732Z,1008.13
2023-07-03T04:11:31.367Z,1008.16
2023-07-03T04:12:34.820Z,1008.16
2023-07-03T04:14:20.734Z,1008.20
2023-07-03T04:15:24.211Z,1008.25
2023-07-03T04:17:10.308Z,1008.20
2023-07-03T04:18:13.788Z,1008.24
2023-07-03T04:19:59.353Z,1008.25
2023-07-03T04:21:02.872Z,1008.27
2023-07-03T04:22:51.489Z,1008.29
2023-07-03T04:23:54.887Z,1008.29
2023-07-03T04:25:40.358Z,1008.30
2023-07-03T04:26:44.373Z,1008.27
2023-07-03T04:28:30.053Z,1008.24
2023-07-03T04:29:33.544Z,1008.28
2023-07-03T04:31:19.152Z,1008.30
2023-07-03T04:32:22.895Z,1008.32
2023-07-03T04:34:11.504Z,1008.36
2023-07-03T04:35:15.023Z,1008.35
2023-07-03T04:37:00.645Z,1008.33
2023-07-03T04:38:04.311Z,1008.38
2023-07-03T04:39:49.930Z,1008.34
2023-07-03T04:40:53.451Z,1008.37
2023-07-03T04:42:39.434Z,1008.34
2023-07-03T04:43:43.259Z,1008.34
2023-07-03T04:45:28.856Z,1008.30
2023-07-03T04:46:32.789Z,1008.28
2023-07-03T04:48:18.706Z,1008.31
2023-07-03T04:49:22.241Z,1008.36
2023-07-03T04:51:07.876Z,1008.41
2023-07-03T04:52:11.134Z,1008.36
2023-07-03T04:53:56.919Z,1008.42
2023-07-03T04:55:00.541Z,1008.47
2023-07-03T04:56:47.098Z,1008.49
2023-07-03T04:57:50.383Z,1008.47
2023-07-03T04:59:36.074Z,1008.42
2023-07-03T05:01:27.502Z,1008.46
2023-07-03T05:03:13.809Z,1008.43
2023-07-03T05:04:18.189Z,1008.45
2023-07-03T05:06:04.749Z,1008.46
2023-07-03T05:07:08.368Z,1008.47
2023-07-03T05:08:54.576Z,1008.53
2023-07-03T05:09:58.064Z,1008.55
2023-07-03T05:11:43.733Z,1008.49
2023-07-03T05:12:47.257Z,1008.51
2023-07-03T05:14:33.179Z,1008.53
2023-07-03T05:15:36.714Z,1008.53
2023-07-03T05:17:23.200Z,1008.55
2023-07-03T05:18:26.631Z,1008.54
2023-07-03T05:20:12.004Z,1008.49
2023-07-03T05:21:15.150Z,1008.53
2023-07-03T05:23:00.303Z,1008.58
2023-07-03T05:24:03.192Z,1008.57
2023-07-03T05:25:48.743Z,1008.65
2023-07-03T05:26:52.164Z,1008.61
2023-07-03T05:28:37.494Z,1008.67
2023-07-03T05:29:40.870Z,1008.68
2023-07-03T05:31:26.336Z,1008.65
2023-07-03T05:32:30.578Z,1008.62
2023-07-03T05:34:16.010Z,1008.65
2023-07-03T05:35:19.273Z,1008.62
2023-07-03T05:37:18.554Z,1008.67
2023-07-03T05:38:23.236Z,1008.75
2023-07-03T05:40:08.726Z,1008.75
2023-07-03T05:41:11.979Z,1008.72
2023-07-03T05:42:57.133Z,1008.80
2023-07-03T05:44:00.531Z,1008.75
2023-07-03T05:45:45.662Z,1008.79
2023-07-03T05:46:49.785Z,1008.78
2023-07-03T05:48:36.600Z,1008.78
2023-07-03T05:49:39.892Z,1008.82
2023-07-03T05:51:25.481Z,1008.80
2023-07-03T05:52:28.840Z,1008.83
2023-07-03T05:54:17.092Z,1008.75
2023-07-03T05:55:20.292Z,1008.80
2023-07-03T05:57:05.624Z,1008.85
2023-07-03T05:58:09.027Z,1008.82
2023-07-03T05:59:54.228Z,1008.84
2023-07-03T06:01:27.290Z,1008.85
2023-07-03T06:03:13.136Z,1008.80
2023-07-03T06:04:19.415Z,1008.81
2023-07-03T06:06:05.946Z,1008.80
2023-07-03T06:07:09.239Z,1008.82
2023-07-03T06:08:54.699Z,1008.77
2023-07-03T06:09:57.895Z,1008.81
2023-07-03T06:11:43.722Z,1008.80
2023-07-03T06:12:46.945Z,1008.75
2023-07-03T06:14:32.309Z,1008.75
2023-07-03T06:15:35.587Z,1008.75
2023-07-03T06:17:21.936Z,1008.77
2023-07-03T06:18:25.472Z,1008.78
2023-07-03T06:20:10.561Z,1008.75
2023-07-03T06:21:13.932Z,1008.77
2023-07-03T06:22:59.225Z,1008.79
2023-07-03T06:24:03.645Z,1008.84
2023-07-03T06:25:49.810Z,1008.79
2023-07-03T06:26:53.431Z,1008.82
2023-07-03T06:28:38.593Z,1008.84
2023-07-03T06:29:42.108Z,1008.80
2023-07-03T06:31:27.910Z,1008.79
2023-07-03T06:32:31.326Z,1008.88
2023-07-03T06:34:16.837Z,1008.89
2023-07-03T06:35:20.280Z,1008.87
2023-07-03T06:37:05.750Z,1008.84
2023-07-03T06:38:08.904Z,1008.84
2023-07-03T06:39:54.396Z,1008.87
2023-07-03T06:40:57.470Z,1008.85
2023-07-03T06:42:42.656Z,1008.88
2023-07-03T06:43:46.250Z,1008.87
2023-07-03T06:45:31.827Z,1008.78
2023-07-03T06:46:35.718Z,1008.84
2023-07-03T06:48:21.691Z,1008.87
2023-07-03T06:49:24.805Z,1008.92
2023-07-03T06:51:10.171Z,1008.93
2023-07-03T06:52:13.357Z,1008.91
2023-07-03T06:53:58.633Z,1008.94
2023-07-03T06:55:01.772Z,1008.95
2023-07-03T06:56:50.090Z,1008.96
2023-07-03T06:57:53.021Z,1008.95
2023-07-03T06:59:38.462Z,1008.95
2023-07-03T07:01:26.797Z,1008.93
2023-07-03T07:03:13.479Z,1008.93
2023-07-03T07:04:18.381Z,1008.91
2023-07-03T07:06:08.974Z,1008.97
2023-07-03T07:07:12.491Z,1009.01
2023-07-03T07:08:57.897Z,1009.02
2023-07-03T07:10:01.039Z,1009.05
2023-07-03T07:11:46.765Z,1009.02
2023-07-03T07:12:50.031Z,1009.04
2023-07-03T07:14:39.250Z,1009.07
2023-07-03T07:15:42.560Z,1009.09
2023-07-03T07:17:51.127Z,1009.08
2023-07-03T07:18:55.762Z,1009.09
2023-07-03T07:20:45.245Z,1009.13
2023-07-03T07:21:48.741Z,1009.07
2023-07-03T07:23:34.092Z,1009.10
2023-07-03T07:24:37.322Z,1009.14
2023-07-03T07:26:22.832Z,1009.15
2023-07-03T07:27:25.997Z,1009.16
2023-07-03T07:29:11.544Z,1009.13
2023-07-03T07:30:15.064Z,1009.16
2023-07-03T07:32:00.900Z,1009.15
2023-07-03T07:33:04.492Z,1009.18
2023-07-03T07:34:50.138Z,1009.18
2023-07-03T07:35:54.032Z,1009.14
2023-07-03T07:37:39.578Z,1009.15
2023-07-03T07:38:43.012Z,1009.17
2023-07-03T07:40:31.179Z,1009.16
2023-07-03T07:41:34.513Z,1009.20
2023-07-03T07:43:19.924Z,1009.16
2023-07-03T07:44:23.256Z,1009.18
2023-07-03T07:46:08.919Z,1009.17
2023-07-03T07:47:12.483Z,1009.12
2023-07-03T07:48:57.964Z,1009.16
2023-07-03T07:50:01.161Z,1009.16
2023-07-03T07:51:46.496Z,1009.17
2023-07-03T07:52:50.204Z,1009.22
2023-07-03T07:54:35.723Z,1009.22
2023-07-03T07:55:39.169Z,1009.16
2023-07-03T07:57:26.717Z,1009.18
2023-07-03T07:58:30.358Z,1009.14
2023-07-03T08:00:24.111Z,1009.13
2023-07-03T08:01:28.341Z,1009.13
2023-07-03T08:03:17.543Z,1009.13
2023-07-03T08:04:21.866Z,1009.19
2023-07-03T08:06:08.433Z,1009.22
2023-07-03T08:07:11.632Z,1009.20
2023-07-03T08:08:57.178Z,1009.18
2023-07-03T08:10:00.431Z,1009.25
2023-07-03T08:11:45.691Z,1009.19
2023-07-03T08:12:49.328Z,1009.20
2023-07-03T08:14:34.986Z,1009.16
2023-07-03T08:15:38.434Z,1009.16
2023-07-03T08:17:24.923Z,1009.14
2023-07-03T08:18:28.504Z,1009.14
2023-07-03T08:20:18.101Z,1009.14
2023-07-03T08:21:21.542Z,1009.17
2023-07-03T08:23:06.956Z,1009.25
2023-07-03T08:24:11.951Z,1009.25
2023-07-03T08:25:58.405Z,1009.27
2023-07-03T08:27:01.723Z,1009.28
2023-07-03T08:28:47.219Z,1009.29
2023-07-03T08:29:50.585Z,1009.35
2023-07-03T08:31:38.177Z,1009.34
2023-07-03T08:32:42.282Z,1009.37
2023-07-03T08:34:29.066Z,1009.40
2023-07-03T08:37:48.397Z,1009.45
2023-07-03T08:38:51.605Z,1009.46
2023-07-03T08:40:37.344Z,1009.43
2023-07-03T08:41:40.923Z,1009.42
2023-07-03T08:43:26.106Z,1009.38
2023-07-03T08:44:29.907Z,1009.42
2023-07-03T08:46:16.719Z,1009.41
2023-07-03T08:47:24.430Z,1009.44
2023-07-03T08:49:11.175Z,1009.40
2023-07-03T08:50:28.005Z,1009.37
2023-07-03T08:52:16.155Z,1009.35
2023-07-03T08:53:19.227Z,1009.36
2023-07-03T08:55:04.639Z,1009.35
2023-07-03T08:56:08.339Z,1009.34
2023-07-03T08:57:54.049Z,1009.34
2023-07-03T08:58:57.371Z,1009.37
2023-07-03T09:00:23.681Z,1009.28
2023-07-03T09:01:27.003Z,1009.33
2023-07-03T09:03:16.144Z,1009.35
2023-07-03T09:04:19.837Z,1009.41
2023-07-03T09:06:05.668Z,1009.37
2023-07-03T09:07:09.085Z,1009.35
2023-07-03T09:08:54.650Z,1009.41
2023-07-03T09:09:58.279Z,1009.36
2023-07-03T09:11:45.944Z,1009.38
2023-07-03T09:12:49.588Z,1009.39
2023-07-03T09:14:34.948Z,1009.47
2023-07-03T09:15:38.436Z,1009.45
2023-07-03T09:17:25.291Z,1009.49
2023-07-03T09:18:28.568Z,1009.45
2023-07-03T09:20:16.410Z,1009.50
2023-07-03T09:21:19.824Z,1009.49
2023-07-03T09:23:04.948Z,1009.47
2023-07-03T09:24:08.789Z,1009.45
2023-07-03T09:25:58.384Z,1009.49
2023-07-03T09:27:06.875Z,1009.52
2023-07-03T09:28:52.368Z,1009.54
2023-07-03T09:29:55.642Z,1009.54
2023-07-03T09:31:46.692Z,1009.56
2023-07-03T09:32:51.686Z,1009.56
2023-07-03T09:34:37.208Z,1009.59
2023-07-03T09:35:41.581Z,1009.57
2023-07-03T09:37:29.207Z,1009.61
2023-07-03T09:38:34.970Z,1009.61
2023-07-03T09:40:21.571Z,1009.61
2023-07-03T09:41:25.408Z,1009.64
2023-07-03T09:43:11.317Z,1009.66
2023-07-03T09:44:15.909Z,1009.65
2023-07-03T09:46:05.574Z,1009.70
2023-07-03T09:47:08.911Z,1009.70
2023-07-03T09:48:58.273Z,1009.71
2023-07-03T09:50:04.524Z,1009.72
2023-07-03T09:52:06.824Z,1009.67
2023-07-03T09:53:23.273Z,1009.63
2023-07-03T09:55:09.376Z,1009.53
2023-07-03T09:56:13.306Z,1009.50
2023-07-03T09:57:58.696Z,1009.57
2023-07-03T09:59:02.067Z,1009.58
2023-07-03T10:00:23.692Z,1009.60
2023-07-03T10:03:38.170Z,1009.61
2023-07-03T10:06:55.447Z,1009.67
2023-07-03T10:08:45.709Z,1009.67
2023-07-03T10:12:05.080Z,1009.74
2023-07-03T10:13:52.981Z,1009.73
2023-07-03T10:14:56.175Z,1009.76
2023-07-03T10:16:42.202Z,1009.84
2023-07-03T10:17:46.091Z,1009.81
2023-07-03T10:19:31.320Z,1009.83
2023-07-03T10:20:39.848Z,1009.85
2023-07-03T10:22:25.275Z,1009.89
2023-07-03T10:23:28.867Z,1009.83
2023-07-03T10:25:14.179Z,1009.87
2023-07-03T10:26:17.422Z,1009.87
2023-07-03T10:28:05.608Z,1009.86
2023-07-03T10:29:09.108Z,1009.91
2023-07-03T10:30:54.899Z,1009.95
2023-07-03T10:31:58.417Z,1009.93
2023-07-03T10:33:44.272Z,1009.94
2023-07-03T10:34:47.633Z,1009.98
2023-07-03T10:36:33.352Z,1010.01
2023-07-03T10:37:36.754Z,1010.00
2023-07-03T10:39:22.234Z,1009.92
2023-07-03T10:40:25.974Z,1009.92
2023-07-03T10:42:11.635Z,1009.92
2023-07-03T10:43:15.029Z,1009.91
2023-07-03T10:45:00.518Z,1009.88
2023-07-03T10:46:04.359Z,1009.85
2023-07-03T10:47:53.447Z,1009.87
2023-07-03T10:48:56.859Z,1009.89
2023-07-03T10:50:43.843Z,1009.85
2023-07-03T10:51:47.807Z,1009.81
2023-07-03T10:53:33.174Z,1009.92
2023-07-03T10:54:36.718Z,1009.94
2023-07-03T10:56:22.633Z,1009.90
2023-07-03T10:57:25.824Z,1009.97
2023-07-03T10:59:14.948Z,1009.96
2023-07-03T11:00:24.110Z,1009.96
2023-07-03T11:01:27.651Z,1009.95
2023-07-03T11:03:14.069Z,1009.92
2023-07-03T11:04:36.598Z,1009.95
2023-07-03T11:06:22.329Z,1009.98
2023-07-03T11:07:25.535Z,1009.95
2023-07-03T11:09:11.217Z,1009.97
2023-07-03T11:10:14.471Z,1009.99
2023-07-03T11:11:59.741Z,1009.97
2023-07-03T11:13:02.883Z,1010.04
2023-07-03T11:14:49.040Z,1010.06
2023-07-03T11:15:52.929Z,1009.96
2023-07-03T11:23:02.132Z,1010.04
2023-07-03T11:24:10.373Z,1009.98
2023-07-03T11:28:00.449Z,1009.98
2023-07-03T11:29:03.848Z,1009.95
2023-07-03T11:30:49.409Z,1009.81
2023-07-03T11:31:53.192Z,1009.84
2023-07-03T11:35:58.961Z,1009.92
2023-07-03T11:37:15.485Z,1010.00
2023-07-03T11:44:33.883Z,1010.01
2023-07-03T11:45:37.295Z,1010.05
2023-07-03T11:47:23.769Z,1010.04
2023-07-03T11:48:27.246Z,1010.03
2023-07-03T11:50:12.630Z,1010.02
2023-07-03T11:51:17.096Z,1010.05
2023-07-03T11:53:02.794Z,1010.07
2023-07-03T11:54:06.328Z,1010.13
2023-07-03T11:55:52.176Z,1010.11
2023-07-03T11:56:55.697Z,1010.14
2023-07-03T11:59:04.448Z,1010.18
2023-07-03T12:00:23.742Z,1010.23
2023-07-03T12:01:27.456Z,1010.24
2023-07-03T12:03:13.801Z,1010.22
2023-07-03T12:04:17.423Z,1010.26
2023-07-03T12:06:03.401Z,1010.22
2023-07-03T12:07:06.717Z,1010.28
2023-07-03T12:08:52.241Z,1010.32
2023-07-03T12:09:55.600Z,1010.26
2023-07-03T12:11:43.299Z,1010.29
2023-07-03T12:12:46.816Z,1010.24
2023-07-03T12:14:32.636Z,1010.27
2023-07-03T12:15:36.061Z,1010.29
2023-07-03T12:17:22.231Z,1010.32
2023-07-03T12:18:26.086Z,1010.28
2023-07-03T12:20:11.715Z,1010.32
2023-07-03T12:21:15.200Z,1010.31
2023-07-03T12:23:00.415Z,1010.32
2023-07-03T12:24:03.548Z,1010.26
2023-07-03T12:25:49.175Z,1010.25
2023-07-03T12:26:52.807Z,1010.24
2023-07-03T12:28:38.324Z,1010.22
2023-07-03T12:29:41.536Z,1010.25
2023-07-03T12:31:27.506Z,1010.23
2023-07-03T12:32:31.483Z,1010.26
2023-07-03T12:34:17.431Z,1010.23
2023-07-03T12:35:20.978Z,1010.22
2023-07-03T12:37:14.494Z,1010.22
2023-07-03T12:38:17.911Z,1010.27
2023-07-03T12:40:03.302Z,1010.20
2023-07-03T12:41:06.606Z,1010.16
2023-07-03T12:42:51.918Z,1010.08
2023-07-03T12:44:13.553Z,1010.16
2023-07-03T12:45:58.938Z,1010.13
2023-07-03T12:47:02.604Z,1010.21
2023-07-03T12:48:48.065Z,1010.10
2023-07-03T12:49:51.423Z,1010.13
2023-07-03T12:51:41.264Z,1010.12
2023-07-03T12:52:47.474Z,1010.09
2023-07-03T12:54:33.068Z,1010.10
2023-07-03T12:55:39.972Z,1009.96
2023-07-03T12:57:26.036Z,1010.23
2023-07-03T12:58:29.600Z,1010.25
2023-07-03T13:00:23.924Z,1010.25
2023-07-03T13:01:27.813Z,1010.22
2023-07-03T13:03:13.434Z,1010.23
2023-07-03T13:04:16.484Z,1010.18
2023-07-03T13:06:06.364Z,1010.15
2023-07-03T13:07:10.105Z,1010.12
2023-07-03T13:08:55.425Z,1010.18
2023-07-03T13:09:58.940Z,1010.13
2023-07-03T13:11:45.425Z,1010.11
2023-07-03T13:12:48.562Z,1010.08
2023-07-03T13:14:34.274Z,1010.12
2023-07-03T13:15:38.065Z,1010.16
2023-07-03T13:17:24.265Z,1010.09
2023-07-03T13:18:27.827Z,1010.12
2023-07-03T13:20:13.324Z,1010.15
2023-07-03T13:21:16.484Z,1010.13
2023-07-03T13:23:01.717Z,1010.12
2023-07-03T13:24:04.981Z,1010.05
2023-07-03T13:25:50.772Z,1010.10
2023-07-03T13:26:54.587Z,1010.12
2023-07-03T13:28:40.905Z,1010.09
2023-07-03T13:29:44.880Z,1010.07
2023-07-03T13:31:51.646Z,1010.10
2023-07-03T13:32:56.095Z,1010.07
2023-07-03T13:34:42.245Z,1010.08
2023-07-03T13:35:45.364Z,1010.08
2023-07-03T13:37:31.070Z,1010.07
2023-07-03T13:38:34.477Z,1010.03
2023-07-03T13:40:20.381Z,1010.09
2023-07-03T13:41:23.845Z,1009.96
2023-07-03T13:43:09.144Z,1009.99
2023-07-03T13:44:12.334Z,1009.97
2023-07-03T13:45:58.713Z,1010.01
2023-07-03T13:47:02.449Z,1010.06
2023-07-03T13:48:48.278Z,1009.88
2023-07-03T13:49:51.588Z,1009.89
2023-07-03T13:51:37.269Z,1009.94
2023-07-03T13:52:40.690Z,1009.87
2023-07-03T13:54:26.996Z,1009.91
2023-07-03T13:55:30.442Z,1009.98
2023-07-03T13:57:17.935Z,1009.99
2023-07-03T13:58:21.204Z,1010.08
2023-07-03T14:00:24.305Z,1009.94
2023-07-03T14:01:38.218Z,1009.95
2023-07-03T14:03:43.884Z,1009.97
2023-07-03T14:04:50.023Z,1010.02
2023-07-03T14:06:36.208Z,1010.00
2023-07-03T14:07:39.643Z,1010.01
2023-07-03T14:09:25.582Z,1010.08
2023-07-03T14:10:29.028Z,1010.06
2023-07-03T14:12:14.328Z,1010.06
2023-07-03T14:13:17.797Z,1010.04
2023-07-03T14:15:05.171Z,1010.02
2023-07-03T14:16:08.553Z,1010.01
2023-07-03T14:17:54.668Z,1010.07
2023-07-03T14:18:58.505Z,1010.01
2023-07-03T14:20:47.485Z,1009.94
2023-07-03T14:21:50.953Z,1009.95
2023-07-03T14:23:36.716Z,1010.04
2023-07-03T14:24:40.100Z,1010.04
2023-07-03T14:26:25.773Z,1010.08
2023-07-03T14:27:29.039Z,1010.09
2023-07-03T14:29:14.861Z,1010.09
2023-07-03T14:30:18.214Z,1010.08
2023-07-03T14:32:04.191Z,1010.11
2023-07-03T14:33:13.832Z,1010.08
2023-07-03T14:34:59.486Z,1010.16
2023-07-03T14:36:03.591Z,1010.12
2023-07-03T14:37:49.100Z,1010.20
2023-07-03T14:38:52.809Z,1010.17
2023-07-03T14:40:38.278Z,1010.22
2023-07-03T14:41:41.819Z,1010.22
2023-07-03T14:43:27.192Z,1010.22
2023-07-03T14:44:30.577Z,1010.15
2023-07-03T14:46:16.452Z,1010.06
2023-07-03T14:47:20.027Z,1010.10
2023-07-03T14:49:06.679Z,1009.98
2023-07-03T14:50:10.102Z,1010.10
2023-07-03T14:51:55.275Z,1010.15
2023-07-03T14:52:58.586Z,1010.17
2023-07-03T14:54:44.616Z,1010.22
2023-07-03T14:55:48.075Z,1010.17
2023-07-03T14:57:37.387Z,1010.19
2023-07-03T14:58:40.704Z,1010.21
2023-07-03T15:00:23.592Z,1010.11
2023-07-03T15:01:28.647Z,1010.13
2023-07-03T15:03:19.414Z,1010.15
2023-07-03T15:04:24.842Z,1010.14
2023-07-03T15:06:10.808Z,1010.08
2023-07-03T15:07:13.933Z,1010.03
2023-07-03T15:08:59.251Z,1010.06
2023-07-03T15:10:02.960Z,1010.11
2023-07-03T15:11:48.438Z,1010.04
2023-07-03T15:12:51.635Z,1010.05
2023-07-03T15:14:39.666Z,1010.07
2023-07-03T15:15:43.014Z,1010.03
2023-07-03T15:17:30.157Z,1010.08
2023-07-03T15:18:33.955Z,1010.05
2023-07-03T15:20:19.378Z,1010.04
2023-07-03T15:21:26.034Z,1010.00
2023-07-03T15:23:11.567Z,1009.98
2023-07-03T15:24:15.040Z,1010.04
2023-07-03T15:26:01.109Z,1010.05
2023-07-03T15:27:04.833Z,1010.02
2023-07-03T15:28:51.725Z,1010.04
2023-07-03T15:29:55.067Z,1010.06
2023-07-03T15:31:42.185Z,1009.96
2023-07-03T15:32:46.645Z,1009.93
2023-07-03T15:34:32.620Z,1009.95
2023-07-03T15:35:36.267Z,1009.96
2023-07-03T15:37:21.748Z,1009.94
2023-07-03T15:38:25.167Z,1009.97
2023-07-03T15:40:10.945Z,1009.93
2023-07-03T15:41:14.408Z,1009.97
2023-07-03T15:42:59.510Z,1009.93
2023-07-03T15:44:02.832Z,1009.88
2023-07-03T15:45:48.059Z,1009.95
2023-07-03T15:46:51.592Z,1009.96
2023-07-03T15:48:37.584Z,1009.91
2023-07-03T15:49:44.420Z,1010.02
2023-07-03T15:51:31.162Z,1009.97
2023-07-03T15:52:34.640Z,1009.91
2023-07-03T15:54:20.398Z,1009.94
2023-07-03T15:55:26.135Z,1009.92
2023-07-03T15:57:12.792Z,1009.90
2023-07-03T15:58:16.195Z,1009.93
2023-07-03T16:00:23.415Z,1009.93
2023-07-03T16:01:26.815Z,1009.91
2023-07-03T16:03:12.816Z,1009.92
2023-07-03T16:04:16.243Z,1009.96
2023-07-03T16:05:53.214Z,1009.91
2023-07-03T16:06:56.529Z,1009.91
2023-07-03T16:08:43.291Z,1009.86
2023-07-03T16:09:46.921Z,1009.85
2023-07-03T16:11:32.960Z,1009.82
2023-07-03T16:12:36.564Z,1009.84
2023-07-03T16:14:22.652Z,1009.83
2023-07-03T16:15:26.049Z,1009.83
2023-07-03T16:17:13.314Z,1009.82
2023-07-03T16:18:17.470Z,1009.81
2023-07-03T16:20:03.066Z,1009.77
2023-07-03T16:21:13.190Z,1009.80
2023-07-03T16:22:59.147Z,1009.78
2023-07-03T16:24:02.708Z,1009.75
2023-07-03T16:25:48.459Z,1009.71
2023-07-03T16:26:53.465Z,1009.70
2023-07-03T16:28:39.131Z,1009.71
2023-07-03T16:29:42.713Z,1009.68
2023-07-03T16:31:29.075Z,1009.67
2023-07-03T16:32:34.675Z,1009.67
2023-07-03T16:34:20.602Z,1009.59
2023-07-03T16:35:24.146Z,1009.59
2023-07-03T16:37:09.748Z,1009.49
2023-07-03T16:38:13.276Z,1009.56
2023-07-03T16:39:58.816Z,1009.64
2023-07-03T16:41:02.477Z,1009.61
2023-07-03T16:42:48.394Z,1009.62
2023-07-03T16:43:52.115Z,1009.63
2023-07-03T16:45:38.012Z,1009.59
2023-07-03T16:46:45.995Z,1009.55
2023-07-03T16:48:32.473Z,1009.53
2023-07-03T16:49:36.301Z,1009.48
2023-07-03T16:51:21.955Z,1009.42
2023-07-03T16:52:25.924Z,1009.41
2023-07-03T16:54:11.838Z,1009.41
2023-07-03T16:55:15.608Z,1009.37
2023-07-03T16:57:01.354Z,1009.34
2023-07-03T16:58:05.093Z,1009.30
2023-07-03T16:59:50.998Z,1009.31
2023-07-03T17:01:27.588Z,1009.28
2023-07-03T17:03:14.403Z,1009.29
2023-07-03T17:04:18.889Z,1009.28
2023-07-03T17:06:04.767Z,1009.28
2023-07-03T17:07:08.248Z,1009.29
2023-07-03T17:08:53.924Z,1009.23
2023-07-03T17:09:57.370Z,1009.23
2023-07-03T17:11:43.289Z,1009.19
2023-07-03T17:12:46.693Z,1009.21
2023-07-03T17:14:32.479Z,1009.21
2023-07-03T17:15:35.842Z,1009.16
2023-07-03T17:17:23.559Z,1009.16
2023-07-03T17:18:27.279Z,1009.13
2023-07-03T17:20:13.258Z,1009.10
2023-07-03T17:21:16.733Z,1009.13
2023-07-03T17:23:02.821Z,1009.15
2023-07-03T17:24:06.555Z,1009.12
2023-07-03T17:25:52.468Z,1009.10
2023-07-03T17:26:56.375Z,1009.11
2023-07-03T17:28:42.512Z,1009.10
2023-07-03T17:29:46.126Z,1009.10
2023-07-03T17:31:32.164Z,1009.09
2023-07-03T17:32:36.211Z,1009.06
2023-07-03T17:34:22.372Z,1009.06
2023-07-03T17:35:26.032Z,1009.04